sensor_id;sensor_type;location;lat;lon;timestamp;pressure;altitude;pressure_sealevel;temperature;humidity
68758;BME280;55747;51.998;4.466;2023-04-30T00:02:07;56428.22;;;-144.48;100.00
68758;BME280;55747;51.998;4.466;2023-04-30T00:04:32;56401.34;;;-144.48;100.00
68758;BME280;55747;51.998;4.466;2023-04-30T00:06:57;56424.09;;;-144.48;100.00
68758;BME280;55747;51.998;4.466;2023-04-30T00:09:23;56395.16;;;-144.48;100.00
68758;BME280;55747;51.998;4.466;2023-04-30T00:11:48;56432.38;;;-144.48;100.00
68758;BME280;55747;51.998;4.466;2023-04-30T00:14:13;56426.16;;;-144.48;100.00
68758;BME280;55747;51.998;4.466;2023-04-30T00:16:38;56440.63;;;-144.48;100.00
68758;BME280;55747;51.998;4.466;2023-04-30T00:19:03;56417.91;;;-144.48;100.00
68758;BME280;55747;51.998;4.466;2023-04-30T00:21:28;56415.81;;;-144.48;100.00
68758;BME280;55747;51.998;4.466;2023-04-30T00:23:54;56471.66;;;-144.48;100.00
68758;BME280;55747;51.998;4.466;2023-04-30T00:26:19;56424.09;;;-144.48;100.00
68758;BME280;55747;51.998;4.466;2023-04-30T00:28:44;56382.75;;;-144.48;100.00
68758;BME280;55747;51.998;4.466;2023-04-30T00:31:10;56428.22;;;-144.48;100.00
68758;BME280;55747;51.998;4.466;2023-04-30T00:33:35;56457.19;;;-144.48;100.00
68758;BME280;55747;51.998;4.466;2023-04-30T00:36:00;56417.91;;;-144.48;100.00
68758;BME280;55747;51.998;4.466;2023-04-30T00:38:26;56457.19;;;-144.48;100.00
68758;BME280;55747;51.998;4.466;2023-04-30T00:40:52;56424.09;;;-144.48;100.00
68758;BME280;55747;51.998;4.466;2023-04-30T00:43:17;56453.03;;;-144.48;100.00
68758;BME280;55747;51.998;4.466;2023-04-30T00:45:42;56432.38;;;-144.48;100.00
68758;BME280;55747;51.998;4.466;2023-04-30T00:48:07;56386.88;;;-144.48;100.00
68758;BME280;55747;51.998;4.466;2023-04-30T00:50:34;56455.09;;;-144.48;100.00
68758;BME280;55747;51.998;4.466;2023-04-30T00:53:00;56422.03;;;-144.48;100.00
68758;BME280;55747;51.998;4.466;2023-04-30T00:55:25;56413.75;;;-144.48;100.00
68758;BME280;55747;51.998;4.466;2023-04-30T00:57:50;56426.16;;;-144.48;100.00
68758;BME280;55747;51.998;4.466;2023-04-30T01:00:16;56442.69;;;-144.48;100.00
68758;BME280;55747;51.998;4.466;2023-04-30T01:02:41;56442.69;;;-144.48;100.00
68758;BME280;55747;51.998;4.466;2023-04-30T01:05:07;56415.81;;;-144.48;100.00
68758;BME280;55747;51.998;4.466;2023-04-30T01:07:33;56442.69;;;-144.48;100.00
68758;BME280;55747;51.998;4.466;2023-04-30T01:09:59;56413.75;;;-144.48;100.00
68758;BME280;55747;51.998;4.466;2023-04-30T01:12:25;56459.25;;;-144.48;100.00
68758;BME280;55747;51.998;4.466;2023-04-30T01:20:16;56411.69;;;-144.48;100.00
68758;BME280;55747;51.998;4.466;2023-04-30T01:22:52;56459.25;;;-144.48;100.00
68758;BME280;55747;51.998;4.466;2023-04-30T01:28:07;56440.63;;;-144.48;100.00
68758;BME280;55747;51.998;4.466;2023-04-30T01:30:33;56442.69;;;-144.48;100.00
68758;BME280;55747;51.998;4.466;2023-04-30T01:32:59;56444.78;;;-144.48;100.00
68758;BME280;55747;51.998;4.466;2023-04-30T01:35:54;56409.63;;;-144.48;100.00
68758;BME280;55747;51.998;4.466;2023-04-30T01:40:50;56428.22;;;-144.48;100.00
68758;BME280;55747;51.998;4.466;2023-04-30T01:43:22;56424.09;;;-144.48;100.00
68758;BME280;55747;51.998;4.466;2023-04-30T01:46:07;56459.25;;;-144.48;100.00
68758;BME280;55747;51.998;4.466;2023-04-30T01:51:18;56424.09;;;-144.48;100.00
68758;BME280;55747;51.998;4.466;2023-04-30T01:53:44;56471.66;;;-144.48;100.00
68758;BME280;55747;51.998;4.466;2023-04-30T01:58:51;56471.66;;;-144.48;100.00
68758;BME280;55747;51.998;4.466;2023-04-30T02:01:30;56415.81;;;-144.48;100.00
68758;BME280;55747;51.998;4.466;2023-04-30T02:03:55;56444.78;;;-144.48;100.00
68758;BME280;55747;51.998;4.466;2023-04-30T02:06:22;56413.75;;;-144.48;100.00
68758;BME280;55747;51.998;4.466;2023-04-30T02:08:52;56405.50;;;-144.48;100.00
68758;BME280;55747;51.998;4.466;2023-04-30T02:11:17;56469.56;;;-144.48;100.00
68758;BME280;55747;51.998;4.466;2023-04-30T02:13:42;56428.22;;;-144.48;100.00
68758;BME280;55747;51.998;4.466;2023-04-30T02:16:07;56438.56;;;-144.48;100.00
68758;BME280;55747;51.998;4.466;2023-04-30T02:18:32;56448.91;;;-144.48;100.00
68758;BME280;55747;51.998;4.466;2023-04-30T02:20:58;56434.44;;;-144.48;100.00
68758;BME280;55747;51.998;4.466;2023-04-30T02:23:23;56453.03;;;-144.48;100.00
68758;BME280;55747;51.998;4.466;2023-04-30T02:25:48;56419.97;;;-144.48;100.00
68758;BME280;55747;51.998;4.466;2023-04-30T02:28:13;56388.94;;;-144.48;100.00
68758;BME280;55747;51.998;4.466;2023-04-30T02:30:38;56411.69;;;-144.48;100.00
68758;BME280;55747;51.998;4.466;2023-04-30T02:33:04;56461.31;;;-144.48;100.00
68758;BME280;55747;51.998;4.466;2023-04-30T02:35:29;56428.22;;;-144.48;100.00
68758;BME280;55747;51.998;4.466;2023-04-30T02:37:54;56426.16;;;-144.48;100.00
68758;BME280;55747;51.998;4.466;2023-04-30T02:40:19;56407.56;;;-144.48;100.00
68758;BME280;55747;51.998;4.466;2023-04-30T02:42:45;56438.56;;;-144.48;100.00
68758;BME280;55747;51.998;4.466;2023-04-30T02:45:10;56428.22;;;-144.48;100.00
68758;BME280;55747;51.998;4.466;2023-04-30T02:47:35;56438.56;;;-144.48;100.00
68758;BME280;55747;51.998;4.466;2023-04-30T02:50:00;56419.97;;;-144.48;100.00
68758;BME280;55747;51.998;4.466;2023-04-30T02:52:26;56436.50;;;-144.48;100.00
68758;BME280;55747;51.998;4.466;2023-04-30T02:54:51;56477.84;;;-144.48;100.00
68758;BME280;55747;51.998;4.466;2023-04-30T02:57:16;56432.38;;;-144.48;100.00
68758;BME280;55747;51.998;4.466;2023-04-30T02:59:41;56436.50;;;-144.48;100.00
68758;BME280;55747;51.998;4.466;2023-04-30T03:02:09;56432.38;;;-144.48;100.00
68758;BME280;55747;51.998;4.466;2023-04-30T03:04:35;56405.50;;;-144.48;100.00
68758;BME280;55747;51.998;4.466;2023-04-30T03:07:00;56450.97;;;-144.48;100.00
68758;BME280;55747;51.998;4.466;2023-04-30T03:09:25;56442.69;;;-144.48;100.00
68758;BME280;55747;51.998;4.466;2023-04-30T03:11:51;56467.50;;;-144.48;100.00
68758;BME280;55747;51.998;4.466;2023-04-30T03:14:16;56467.50;;;-144.48;100.00
68758;BME280;55747;51.998;4.466;2023-04-30T03:16:41;56440.63;;;-144.48;100.00
68758;BME280;55747;51.998;4.466;2023-04-30T03:19:06;56432.38;;;-144.48;100.00
68758;BME280;55747;51.998;4.466;2023-04-30T03:21:31;56409.63;;;-144.48;100.00
68758;BME280;55747;51.998;4.466;2023-04-30T03:23:57;56440.63;;;-144.48;100.00
68758;BME280;55747;51.998;4.466;2023-04-30T03:26:22;56475.78;;;-144.48;100.00
68758;BME280;55747;51.998;4.466;2023-04-30T03:28:47;56430.28;;;-144.48;100.00
68758;BME280;55747;51.998;4.466;2023-04-30T03:31:13;56467.50;;;-144.48;100.00
68758;BME280;55747;51.998;4.466;2023-04-30T03:33:38;56438.56;;;-144.48;100.00
68758;BME280;55747;51.998;4.466;2023-04-30T03:36:07;56444.78;;;-144.48;100.00
68758;BME280;55747;51.998;4.466;2023-04-30T03:38:32;56428.22;;;-144.48;100.00
68758;BME280;55747;51.998;4.466;2023-04-30T03:40:57;56459.25;;;-144.48;100.00
68758;BME280;55747;51.998;4.466;2023-04-30T03:43:22;56471.66;;;-144.48;100.00
68758;BME280;55747;51.998;4.466;2023-04-30T03:45:47;56426.16;;;-144.48;100.00
68758;BME280;55747;51.998;4.466;2023-04-30T03:48:13;56450.97;;;-144.48;100.00
68758;BME280;55747;51.998;4.466;2023-04-30T03:50:38;56467.50;;;-144.48;100.00
68758;BME280;55747;51.998;4.466;2023-04-30T03:53:03;56457.19;;;-144.48;100.00
68758;BME280;55747;51.998;4.466;2023-04-30T03:55:29;56457.19;;;-144.48;100.00
68758;BME280;55747;51.998;4.466;2023-04-30T03:57:54;56428.22;;;-144.48;100.00
68758;BME280;55747;51.998;4.466;2023-04-30T04:00:19;56459.25;;;-144.48;100.00
68758;BME280;55747;51.998;4.466;2023-04-30T04:02:45;56442.69;;;-144.48;100.00
68758;BME280;55747;51.998;4.466;2023-04-30T04:05:10;56467.50;;;-144.48;100.00
68758;BME280;55747;51.998;4.466;2023-04-30T04:07:35;56399.28;;;-144.48;100.00
68758;BME280;55747;51.998;4.466;2023-04-30T04:10:00;56469.56;;;-144.48;100.00
68758;BME280;55747;51.998;4.466;2023-04-30T04:12:26;56461.31;;;-144.48;100.00
68758;BME280;55747;51.998;4.466;2023-04-30T04:14:51;56463.38;;;-144.48;100.00
68758;BME280;55747;51.998;4.466;2023-04-30T04:17:16;56455.09;;;-144.48;100.00
68758;BME280;55747;51.998;4.466;2023-04-30T04:19:42;56432.38;;;-144.48;100.00
68758;BME280;55747;51.998;4.466;2023-04-30T04:22:07;56461.31;;;-144.48;100.00
68758;BME280;55747;51.998;4.466;2023-04-30T04:24:32;56459.25;;;-144.48;100.00
68758;BME280;55747;51.998;4.466;2023-04-30T04:26:58;56459.25;;;-144.48;100.00
68758;BME280;55747;51.998;4.466;2023-04-30T04:29:23;56471.66;;;-144.48;100.00
68758;BME280;55747;51.998;4.466;2023-04-30T04:31:48;56459.25;;;-144.48;100.00
68758;BME280;55747;51.998;4.466;2023-04-30T04:34:15;56419.97;;;-144.48;100.00
68758;BME280;55747;51.998;4.466;2023-04-30T04:36:40;56479.91;;;-144.48;100.00
68758;BME280;55747;51.998;4.466;2023-04-30T04:39:05;56484.06;;;-144.48;100.00
68758;BME280;55747;51.998;4.466;2023-04-30T04:41:31;56461.31;;;-144.48;100.00
68758;BME280;55747;51.998;4.466;2023-04-30T04:43:56;56448.91;;;-144.48;100.00
68758;BME280;55747;51.998;4.466;2023-04-30T04:46:23;56442.69;;;-144.48;100.00
68758;BME280;55747;51.998;4.466;2023-04-30T04:48:48;56465.44;;;-144.48;100.00
68758;BME280;55747;51.998;4.466;2023-04-30T04:51:13;56455.09;;;-144.48;100.00
68758;BME280;55747;51.998;4.466;2023-04-30T04:53:39;56469.56;;;-144.48;100.00
68758;BME280;55747;51.998;4.466;2023-04-30T04:56:04;56471.66;;;-144.48;100.00
68758;BME280;55747;51.998;4.466;2023-04-30T04:58:30;56479.91;;;-144.48;100.00
68758;BME280;55747;51.998;4.466;2023-04-30T05:00:55;56484.06;;;-144.48;100.00
68758;BME280;55747;51.998;4.466;2023-04-30T05:03:21;56479.91;;;-144.48;100.00
68758;BME280;55747;51.998;4.466;2023-04-30T05:05:46;56486.13;;;-144.48;100.00
68758;BME280;55747;51.998;4.466;2023-04-30T05:08:11;56475.78;;;-144.48;100.00
68758;BME280;55747;51.998;4.466;2023-04-30T05:10:37;56475.78;;;-144.48;100.00
68758;BME280;55747;51.998;4.466;2023-04-30T05:13:02;56465.44;;;-144.48;100.00
68758;BME280;55747;51.998;4.466;2023-04-30T05:15:27;56475.78;;;-144.48;100.00
68758;BME280;55747;51.998;4.466;2023-04-30T05:17:53;56448.91;;;-144.48;100.00
68758;BME280;55747;51.998;4.466;2023-04-30T05:20:18;56475.78;;;-144.48;100.00
68758;BME280;55747;51.998;4.466;2023-04-30T05:22:43;56488.19;;;-144.48;100.00
68758;BME280;55747;51.998;4.466;2023-04-30T05:25:08;56473.72;;;-144.48;100.00
68758;BME280;55747;51.998;4.466;2023-04-30T05:27:34;56469.56;;;-144.48;100.00
68758;BME280;55747;51.998;4.466;2023-04-30T05:30:00;56473.72;;;-144.48;100.00
68758;BME280;55747;51.998;4.466;2023-04-30T05:32:25;56494.38;;;-144.48;100.00
68758;BME280;55747;51.998;4.466;2023-04-30T05:34:51;56459.25;;;-144.48;100.00
68758;BME280;55747;51.998;4.466;2023-04-30T05:37:17;56502.66;;;-144.48;100.00
68758;BME280;55747;51.998;4.466;2023-04-30T05:39:44;56469.56;;;-144.48;100.00
68758;BME280;55747;51.998;4.466;2023-04-30T05:42:09;56479.91;;;-144.48;100.00
68758;BME280;55747;51.998;4.466;2023-04-30T05:44:34;56442.69;;;-144.48;100.00
68758;BME280;55747;51.998;4.466;2023-04-30T05:46:59;56475.78;;;-144.48;100.00
68758;BME280;55747;51.998;4.466;2023-04-30T05:49:25;56461.31;;;-144.48;100.00
68758;BME280;55747;51.998;4.466;2023-04-30T05:52:00;56467.50;;;-144.48;100.00
68758;BME280;55747;51.998;4.466;2023-04-30T05:54:28;56465.44;;;-144.48;100.00
68758;BME280;55747;51.998;4.466;2023-04-30T05:56:53;56473.72;;;-144.48;99.59
68758;BME280;55747;51.998;4.466;2023-04-30T05:59:18;56438.56;;;-144.48;96.03
68758;BME280;55747;51.998;4.466;2023-04-30T06:01:43;56467.50;;;-144.48;95.60
68758;BME280;55747;51.998;4.466;2023-04-30T06:04:09;56490.25;;;-144.48;93.18
68758;BME280;55747;51.998;4.466;2023-04-30T06:06:35;56444.78;;;-144.48;91.41
68758;BME280;55747;51.998;4.466;2023-04-30T06:09:00;56488.19;;;-144.48;88.24
68758;BME280;55747;51.998;4.466;2023-04-30T06:11:26;56434.44;;;-144.48;82.87
68758;BME280;55747;51.998;4.466;2023-04-30T06:13:51;56477.84;;;-144.48;87.72
68758;BME280;55747;51.998;4.466;2023-04-30T06:16:19;56469.56;;;-144.48;84.77
68758;BME280;55747;51.998;4.466;2023-04-30T06:18:44;56471.66;;;-144.48;78.44
68758;BME280;55747;51.998;4.466;2023-04-30T06:21:09;56457.19;;;-144.48;78.11
68758;BME280;55747;51.998;4.466;2023-04-30T06:23:35;56457.19;;;-144.48;76.61
68758;BME280;55747;51.998;4.466;2023-04-30T06:26:01;56492.31;;;-144.48;75.33
68758;BME280;55747;51.998;4.466;2023-04-30T06:28:29;56496.44;;;-144.48;71.79
68758;BME280;55747;51.998;4.466;2023-04-30T06:30:55;56453.03;;;-144.48;69.09
68758;BME280;55747;51.998;4.466;2023-04-30T06:33:20;56461.31;;;-144.48;67.62
68758;BME280;55747;51.998;4.466;2023-04-30T06:35:45;56486.13;;;-144.48;67.43
68758;BME280;55747;51.998;4.466;2023-04-30T06:38:11;56455.09;;;-144.48;69.74
68758;BME280;55747;51.998;4.466;2023-04-30T06:40:36;56426.16;;;-144.48;68.30
68758;BME280;55747;51.998;4.466;2023-04-30T06:43:02;56450.97;;;-144.48;70.74
68758;BME280;55747;51.998;4.466;2023-04-30T06:45:27;56473.72;;;-144.48;71.58
68758;BME280;55747;51.998;4.466;2023-04-30T06:47:53;56442.69;;;-144.48;67.20
68758;BME280;55747;51.998;4.466;2023-04-30T06:50:18;56419.97;;;-144.48;65.38
68758;BME280;55747;51.998;4.466;2023-04-30T06:52:45;56442.69;;;-144.48;65.35
68758;BME280;55747;51.998;4.466;2023-04-30T06:55:10;56450.97;;;-144.48;63.35
68758;BME280;55747;51.998;4.466;2023-04-30T06:57:35;56413.75;;;-144.48;62.52
68758;BME280;55747;51.998;4.466;2023-04-30T07:00:02;56417.91;;;-144.48;62.43
68758;BME280;55747;51.998;4.466;2023-04-30T07:02:28;56419.97;;;-144.48;64.67
68758;BME280;55747;51.998;4.466;2023-04-30T07:04:53;56428.22;;;-144.48;62.68
68758;BME280;55747;51.998;4.466;2023-04-30T07:07:18;56459.25;;;-144.48;60.68
68758;BME280;55747;51.998;4.466;2023-04-30T07:09:44;56442.69;;;-144.48;63.31
68758;BME280;55747;51.998;4.466;2023-04-30T07:12:09;56424.09;;;-144.48;62.84
68758;BME280;55747;51.998;4.466;2023-04-30T07:14:37;56453.03;;;-144.48;61.01
68758;BME280;55747;51.998;4.466;2023-04-30T07:17:02;56436.50;;;-144.48;62.46
68758;BME280;55747;51.998;4.466;2023-04-30T07:19:28;56440.63;;;-144.48;61.80
68758;BME280;55747;51.998;4.466;2023-04-30T07:21:53;56455.09;;;-144.48;61.59
68758;BME280;55747;51.998;4.466;2023-04-30T07:24:18;56430.28;;;-144.48;59.16
68758;BME280;55747;51.998;4.466;2023-04-30T07:26:43;56448.91;;;-144.48;60.84
68758;BME280;55747;51.998;4.466;2023-04-30T07:29:08;56459.25;;;-144.48;59.62
68758;BME280;55747;51.998;4.466;2023-04-30T07:31:37;56407.56;;;-144.48;58.19
68758;BME280;55747;51.998;4.466;2023-04-30T07:34:02;56430.28;;;-144.48;56.31
68758;BME280;55747;51.998;4.466;2023-04-30T07:36:27;56401.34;;;-144.48;56.38
68758;BME280;55747;51.998;4.466;2023-04-30T07:38:55;56407.56;;;-144.48;55.98
68758;BME280;55747;51.998;4.466;2023-04-30T07:41:20;56384.81;;;-144.48;54.58
68758;BME280;55747;51.998;4.466;2023-04-30T07:43:45;56426.16;;;-144.48;54.73
68758;BME280;55747;51.998;4.466;2023-04-30T07:46:11;56382.75;;;-144.48;51.61
68758;BME280;55747;51.998;4.466;2023-04-30T07:48:36;56426.16;;;-144.48;53.37
68758;BME280;55747;51.998;4.466;2023-04-30T07:51:01;56453.03;;;-144.48;55.59
68758;BME280;55747;51.998;4.466;2023-04-30T07:53:28;56357.94;;;-144.48;51.67
68758;BME280;55747;51.998;4.466;2023-04-30T07:55:54;56428.22;;;-144.48;53.52
68758;BME280;55747;51.998;4.466;2023-04-30T07:58:19;56386.88;;;-144.48;51.86
68758;BME280;55747;51.998;4.466;2023-04-30T08:00:44;56411.69;;;-144.48;50.22
68758;BME280;55747;51.998;4.466;2023-04-30T08:03:09;56403.41;;;-144.48;51.25
68758;BME280;55747;51.998;4.466;2023-04-30T08:05:36;56391.00;;;-144.48;49.56
68758;BME280;55747;51.998;4.466;2023-04-30T08:08:01;56407.56;;;-144.48;49.74
68758;BME280;55747;51.998;4.466;2023-04-30T08:10:27;56405.50;;;-144.48;47.54
68758;BME280;55747;51.998;4.466;2023-04-30T08:12:52;56403.41;;;-144.48;47.49
68758;BME280;55747;51.998;4.466;2023-04-30T08:15:17;56360.00;;;-144.48;49.42
68758;BME280;55747;51.998;4.466;2023-04-30T08:17:45;56419.97;;;-144.48;49.95
68758;BME280;55747;51.998;4.466;2023-04-30T08:20:11;56403.41;;;-144.48;51.06
68758;BME280;55747;51.998;4.466;2023-04-30T08:22:36;56372.41;;;-144.48;50.26
68758;BME280;55747;51.998;4.466;2023-04-30T08:25:01;56397.22;;;-144.48;47.57
68758;BME280;55747;51.998;4.466;2023-04-30T08:27:27;56391.00;;;-144.48;50.60
68758;BME280;55747;51.998;4.466;2023-04-30T08:29:52;56411.69;;;-144.48;48.41
68758;BME280;55747;51.998;4.466;2023-04-30T08:32:18;56391.00;;;-144.48;48.55
68758;BME280;55747;51.998;4.466;2023-04-30T08:34:44;56372.41;;;-144.48;48.15
68758;BME280;55747;51.998;4.466;2023-04-30T08:37:09;56403.41;;;-144.48;49.54
68758;BME280;55747;51.998;4.466;2023-04-30T08:39:34;56364.13;;;-144.48;49.46
68758;BME280;55747;51.998;4.466;2023-04-30T08:42:03;56372.41;;;-144.48;47.41
68758;BME280;55747;51.998;4.466;2023-04-30T08:44:32;56401.34;;;-144.48;46.67
68758;BME280;55747;51.998;4.466;2023-04-30T08:47:00;56422.03;;;-144.48;46.88
68758;BME280;55747;51.998;4.466;2023-04-30T08:49:26;56380.69;;;-144.48;45.70
68758;BME280;55747;51.998;4.466;2023-04-30T08:51:59;56366.22;;;-144.48;47.34
68758;BME280;55747;51.998;4.466;2023-04-30T08:54:25;56360.00;;;-144.48;44.35
68758;BME280;55747;51.998;4.466;2023-04-30T08:56:52;56374.47;;;-144.48;42.46
68758;BME280;55747;51.998;4.466;2023-04-30T08:59:17;56333.13;;;-144.48;43.96
68758;BME280;55747;51.998;4.466;2023-04-30T09:01:42;56360.00;;;-144.48;41.94
68758;BME280;55747;51.998;4.466;2023-04-30T09:04:07;56337.25;;;-144.48;40.08
68758;BME280;55747;51.998;4.466;2023-04-30T09:06:33;56355.88;;;-144.48;42.29
68758;BME280;55747;51.998;4.466;2023-04-30T09:08:58;56366.22;;;-144.48;43.08
68758;BME280;55747;51.998;4.466;2023-04-30T09:11:31;56357.94;;;-144.48;43.17
68758;BME280;55747;51.998;4.466;2023-04-30T09:14:00;56343.47;;;-144.48;41.46
68758;BME280;55747;51.998;4.466;2023-04-30T09:16:26;56355.88;;;-144.48;40.64
68758;BME280;55747;51.998;4.466;2023-04-30T09:18:58;56326.94;;;-144.48;40.92
68758;BME280;55747;51.998;4.466;2023-04-30T09:21:33;56343.47;;;-144.48;40.82
68758;BME280;55747;51.998;4.466;2023-04-30T09:24:00;56351.75;;;-144.48;42.32
68758;BME280;55747;51.998;4.466;2023-04-30T09:26:32;56370.34;;;-144.48;40.84
68758;BME280;55747;51.998;4.466;2023-04-30T09:28:58;56347.59;;;-144.48;40.99
68758;BME280;55747;51.998;4.466;2023-04-30T09:31:24;56351.75;;;-144.48;40.07
68758;BME280;55747;51.998;4.466;2023-04-30T09:33:50;56368.28;;;-144.48;42.29
68758;BME280;55747;51.998;4.466;2023-04-30T09:36:15;56343.47;;;-144.48;42.41
68758;BME280;55747;51.998;4.466;2023-04-30T09:38:41;56355.88;;;-144.48;42.24
68758;BME280;55747;51.998;4.466;2023-04-30T09:41:06;56364.13;;;-144.48;41.15
68758;BME280;55747;51.998;4.466;2023-04-30T09:43:44;56353.81;;;-144.48;38.41
68758;BME280;55747;51.998;4.466;2023-04-30T09:46:10;56322.78;;;-144.48;40.21
68758;BME280;55747;51.998;4.466;2023-04-30T09:48:35;56326.94;;;-144.48;37.30
68758;BME280;55747;51.998;4.466;2023-04-30T09:51:05;56312.47;;;-144.48;36.82
68758;BME280;55747;51.998;4.466;2023-04-30T09:53:30;56335.19;;;-144.48;39.02
68758;BME280;55747;51.998;4.466;2023-04-30T09:56:02;56316.59;;;-144.48;37.33
68758;BME280;55747;51.998;4.466;2023-04-30T09:58:30;56355.88;;;-144.48;39.22
68758;BME280;55747;51.998;4.466;2023-04-30T10:01:00;56300.06;;;-144.48;39.15
68758;BME280;55747;51.998;4.466;2023-04-30T10:03:27;56347.59;;;-144.48;38.26
68758;BME280;55747;51.998;4.466;2023-04-30T10:05:55;56314.53;;;-144.48;39.11
68758;BME280;55747;51.998;4.466;2023-04-30T10:08:26;56316.59;;;-144.48;38.35
68758;BME280;55747;51.998;4.466;2023-04-30T10:11:11;56320.72;;;-144.48;38.86
68758;BME280;55747;51.998;4.466;2023-04-30T10:13:51;56322.78;;;-144.48;40.05
68758;BME280;55747;51.998;4.466;2023-04-30T10:18:43;56343.47;;;-144.48;36.70
68758;BME280;55747;51.998;4.466;2023-04-30T10:21:10;56318.66;;;-144.48;37.31
68758;BME280;55747;51.998;4.466;2023-04-30T10:23:38;56341.41;;;-144.48;38.40
68758;BME280;55747;51.998;4.466;2023-04-30T10:26:04;56324.88;;;-144.48;38.04
68758;BME280;55747;51.998;4.466;2023-04-30T10:28:29;56331.06;;;-144.48;36.98
68758;BME280;55747;51.998;4.466;2023-04-30T10:30:58;56326.94;;;-144.48;36.09
68758;BME280;55747;51.998;4.466;2023-04-30T10:35:55;56347.59;;;-144.48;37.33
68758;BME280;55747;51.998;4.466;2023-04-30T10:38:24;56281.44;;;-144.48;39.01
68758;BME280;55747;51.998;4.466;2023-04-30T10:40:54;56281.44;;;-144.48;36.37
68758;BME280;55747;51.998;4.466;2023-04-30T10:43:22;56289.72;;;-144.48;36.85
68758;BME280;55747;51.998;4.466;2023-04-30T10:45:47;56306.25;;;-144.48;36.49
68758;BME280;55747;51.998;4.466;2023-04-30T10:48:14;56357.94;;;-144.48;37.83
68758;BME280;55747;51.998;4.466;2023-04-30T10:50:43;56370.34;;;-144.48;37.14
68758;BME280;55747;51.998;4.466;2023-04-30T10:53:12;56300.06;;;-144.48;36.78
68758;BME280;55747;51.998;4.466;2023-04-30T10:56:02;56293.84;;;-144.48;35.58
68758;BME280;55747;51.998;4.466;2023-04-30T10:58:34;56289.72;;;-144.48;33.23
68758;BME280;55747;51.998;4.466;2023-04-30T11:01:13;56283.50;;;-144.48;34.56
68758;BME280;55747;51.998;4.466;2023-04-30T11:03:42;56293.84;;;-144.48;34.88
68758;BME280;55747;51.998;4.466;2023-04-30T11:06:27;56318.66;;;-144.48;35.31
68758;BME280;55747;51.998;4.466;2023-04-30T11:09:12;56320.72;;;-144.48;35.55
68758;BME280;55747;51.998;4.466;2023-04-30T11:11:37;56287.66;;;-144.48;34.64
68758;BME280;55747;51.998;4.466;2023-04-30T11:14:02;56289.72;;;-144.48;36.04
68758;BME280;55747;51.998;4.466;2023-04-30T11:16:33;56269.03;;;-144.48;35.60
68758;BME280;55747;51.998;4.466;2023-04-30T11:19:05;56266.97;;;-144.48;36.90
68758;BME280;55747;51.998;4.466;2023-04-30T11:21:31;56316.59;;;-144.48;36.55
68758;BME280;55747;51.998;4.466;2023-04-30T11:24:01;56271.13;;;-144.48;34.99
68758;BME280;55747;51.998;4.466;2023-04-30T11:26:27;56306.25;;;-144.48;35.84
68758;BME280;55747;51.998;4.466;2023-04-30T11:28:52;56281.44;;;-144.48;33.93
68758;BME280;55747;51.998;4.466;2023-04-30T11:31:19;56252.50;;;-144.48;33.56
68758;BME280;55747;51.998;4.466;2023-04-30T11:33:44;56271.13;;;-144.48;34.15
68758;BME280;55747;51.998;4.466;2023-04-30T11:36:10;56279.38;;;-144.48;33.91
68758;BME280;55747;51.998;4.466;2023-04-30T11:38:38;56279.38;;;-144.48;34.66
68758;BME280;55747;51.998;4.466;2023-04-30T11:41:04;56281.44;;;-144.48;34.83
68758;BME280;55747;51.998;4.466;2023-04-30T11:43:30;56279.38;;;-144.48;34.14
68758;BME280;55747;51.998;4.466;2023-04-30T11:46:03;56304.19;;;-144.48;35.00
68758;BME280;55747;51.998;4.466;2023-04-30T11:48:29;56298.00;;;-144.48;32.90
68758;BME280;55747;51.998;4.466;2023-04-30T11:50:54;56298.00;;;-144.48;33.47
68758;BME280;55747;51.998;4.466;2023-04-30T11:53:20;56304.19;;;-144.48;34.14
68758;BME280;55747;51.998;4.466;2023-04-30T11:55:50;56289.72;;;-144.48;33.32
68758;BME280;55747;51.998;4.466;2023-04-30T11:58:17;56283.50;;;-144.48;33.29
68758;BME280;55747;51.998;4.466;2023-04-30T12:00:43;56295.91;;;-144.48;33.93
68758;BME280;55747;51.998;4.466;2023-04-30T12:03:08;56306.25;;;-144.48;34.78
68758;BME280;55747;51.998;4.466;2023-04-30T12:05:36;56279.38;;;-144.48;35.91
68758;BME280;55747;51.998;4.466;2023-04-30T12:08:13;56300.06;;;-144.48;34.79
68758;BME280;55747;51.998;4.466;2023-04-30T12:10:38;56295.91;;;-144.48;35.17
68758;BME280;55747;51.998;4.466;2023-04-30T12:13:03;56295.91;;;-144.48;35.84
68758;BME280;55747;51.998;4.466;2023-04-30T12:15:28;56271.13;;;-144.48;35.19
68758;BME280;55747;51.998;4.466;2023-04-30T12:17:54;56250.44;;;-144.48;33.39
68758;BME280;55747;51.998;4.466;2023-04-30T12:20:20;56306.25;;;-144.48;33.41
68758;BME280;55747;51.998;4.466;2023-04-30T12:22:46;56298.00;;;-144.48;35.27
68758;BME280;55747;51.998;4.466;2023-04-30T12:25:25;56260.78;;;-144.48;34.96
68758;BME280;55747;51.998;4.466;2023-04-30T12:27:54;56260.78;;;-144.48;33.84
68758;BME280;55747;51.998;4.466;2023-04-30T12:30:23;56316.59;;;-144.48;34.00
68758;BME280;55747;51.998;4.466;2023-04-30T12:32:51;56293.84;;;-144.48;33.57
68758;BME280;55747;51.998;4.466;2023-04-30T12:35:17;56258.72;;;-144.48;34.19
68758;BME280;55747;51.998;4.466;2023-04-30T12:37:47;56260.78;;;-144.48;33.62
68758;BME280;55747;51.998;4.466;2023-04-30T12:40:14;56285.59;;;-144.48;34.42
68758;BME280;55747;51.998;4.466;2023-04-30T12:42:42;56279.38;;;-144.48;36.27
68758;BME280;55747;51.998;4.466;2023-04-30T12:45:09;56300.06;;;-144.48;35.24
68758;BME280;55747;51.998;4.466;2023-04-30T12:47:53;56252.50;;;-144.48;33.16
68758;BME280;55747;51.998;4.466;2023-04-30T12:50:18;56271.13;;;-144.48;34.98
68758;BME280;55747;51.998;4.466;2023-04-30T12:52:46;56235.97;;;-144.48;34.34
68758;BME280;55747;51.998;4.466;2023-04-30T12:55:21;56277.31;;;-144.48;34.72